Time;durP1;ratioP1;P1;durP2;ratioP2;P2;SDS_P1;SDS_P2;PMS_P1;PMS_P2;Temp;Humidity;BMP_temperature;BMP_pressure;BME280_temperature;BME280_humidity;BME280_pressure;Samples;Min_cycle;Max_cycle;Signal;HPM_P1;HPM_P2
2022/11/19 00:01:10;;;;;;;10.73;4.82;;;;;;;;;;5014341;28;20037;-76
2022/11/19 00:03:37;;;;;;;11.23;4.65;;;;;;;;;;5014338;28;20032;-77
2022/11/19 00:06:06;;;;;;;11.50;4.68;;;;;;;;;;5014236;28;20096;-76
2022/11/19 00:08:32;;;;;;;13.27;4.78;;;;;;;;;;4996724;28;20029;-78
2022/11/19 00:11:07;;;;;;;7.85;4.20;;;;;;;;;;5014700;28;20029;-75
2022/11/19 00:13:33;;;;;;;6.07;3.10;;;;;;;;;;5014105;28;20108;-76
2022/11/19 00:16:03;;;;;;;7.20;4.40;;;;;;;;;;5014261;28;20061;-75
2022/11/19 00:18:29;;;;;;;6.43;3.70;;;;;;;;;;5014009;28;20440;-75
2022/11/19 00:20:55;;;;;;;8.23;4.20;;;;;;;;;;5013185;28;20061;-76
2022/11/19 00:23:21;;;;;;;7.15;4.22;;;;;;;;;;5013294;28;20100;-75
2022/11/19 00:25:47;;;;;;;10.60;4.57;;;;;;;;;;5013954;28;20030;-75
2022/11/19 00:28:12;;;;;;;8.95;4.75;;;;;;;;;;4996929;28;20582;-76
2022/11/19 00:30:37;;;;;;;8.63;4.40;;;;;;;;;;5013952;28;20026;-76
2022/11/19 00:33:02;;;;;;;7.43;4.18;;;;;;;;;;4996241;28;20053;-76
2022/11/19 00:35:28;;;;;;;6.68;3.55;;;;;;;;;;5013772;28;20042;-75
2022/11/19 00:37:53;;;;;;;8.00;4.22;;;;;;;;;;5013642;28;20380;-76
2022/11/19 00:40:18;;;;;;;4.43;2.63;;;;;;;;;;4996274;28;20511;-76
2022/11/19 00:43:45;;;;;;;8.85;4.22;;;;;;;;;;5014734;28;20057;-77
2022/11/19 00:45:29;;;;;;;7.55;4.15;;;;;;;;;;5013633;28;20030;-76
2022/11/19 00:47:54;;;;;;;7.88;4.22;;;;;;;;;;5013948;28;20021;-77
2022/11/19 00:50:19;;;;;;;8.25;3.78;;;;;;;;;;5013634;28;20041;-76
2022/11/19 00:52:44;;;;;;;11.80;4.78;;;;;;;;;;5013523;28;20046;-75
2022/11/19 00:55:10;;;;;;;10.05;5.25;;;;;;;;;;5013649;28;20084;-75
2022/11/19 00:57:35;;;;;;;8.55;4.68;;;;;;;;;;5013514;28;20018;-77
2022/11/19 01:00:00;;;;;;;8.23;4.68;;;;;;;;;;5013367;28;20037;-77
2022/11/19 01:02:26;;;;;;;8.80;4.88;;;;;;;;;;5013408;28;20499;-77
2022/11/19 01:04:51;;;;;;;9.25;4.68;;;;;;;;;;4996041;28;20482;-76
2022/11/19 01:07:16;;;;;;;11.57;4.43;;;;;;;;;;4996170;28;20052;-77
2022/11/19 01:09:42;;;;;;;10.45;5.00;;;;;;;;;;5013463;28;20028;-76
2022/11/19 01:12:07;;;;;;;8.52;4.53;;;;;;;;;;5013311;28;20026;-77
2022/11/19 01:14:32;;;;;;;11.00;5.18;;;;;;;;;;5013371;28;20061;-77
2022/11/19 01:16:57;;;;;;;8.25;4.35;;;;;;;;;;5013553;28;20551;-76
2022/11/19 01:19:23;;;;;;;9.60;4.55;;;;;;;;;;4995804;28;20021;-77
2022/11/19 01:21:48;;;;;;;8.68;4.10;;;;;;;;;;5013378;28;20030;-77
2022/11/19 01:24:13;;;;;;;8.52;4.25;;;;;;;;;;5013266;28;20502;-77
2022/11/19 01:26:39;;;;;;;8.40;4.50;;;;;;;;;;5013618;28;20041;-77
2022/11/19 01:29:04;;;;;;;7.65;4.28;;;;;;;;;;5013135;28;20091;-77
2022/11/19 01:31:29;;;;;;;9.13;4.60;;;;;;;;;;5013360;28;20018;-77
2022/11/19 01:33:55;;;;;;;9.82;5.28;;;;;;;;;;4995588;28;20022;-76
2022/11/19 01:36:23;;;;;;;9.52;4.95;;;;;;;;;;4995546;28;20026;-77
2022/11/19 01:38:51;;;;;;;8.13;4.28;;;;;;;;;;5013379;28;20068;-77
2022/11/19 01:41:25;;;;;;;8.77;4.68;;;;;;;;;;5013031;28;20108;-76
2022/11/19 01:43:55;;;;;;;8.10;3.90;;;;;;;;;;5013461;28;20038;-77
2022/11/19 01:46:23;;;;;;;10.10;4.63;;;;;;;;;;5013126;28;20030;-76
2022/11/19 01:48:56;;;;;;;9.60;4.88;;;;;;;;;;5013325;28;20109;-77
2022/11/19 01:51:27;;;;;;;11.40;4.75;;;;;;;;;;5012964;28;20029;-77
2022/11/19 01:53:56;;;;;;;8.52;3.88;;;;;;;;;;5013825;28;20117;-77
2022/11/19 01:56:22;;;;;;;11.70;5.05;;;;;;;;;;5013176;28;20410;-77
2022/11/19 01:58:52;;;;;;;15.00;5.03;;;;;;;;;;5013005;28;20034;-77
2022/11/19 02:01:18;;;;;;;11.07;4.57;;;;;;;;;;4995047;28;20053;-77
2022/11/19 02:03:44;;;;;;;10.40;4.35;;;;;;;;;;5012820;28;20541;-77
2022/11/19 02:06:10;;;;;;;8.05;4.18;;;;;;;;;;5012899;28;20034;-77
2022/11/19 02:08:43;;;;;;;12.40;5.00;;;;;;;;;;5012920;28;20082;-77
2022/11/19 02:11:08;;;;;;;9.93;4.55;;;;;;;;;;5014392;28;20026;-76
2022/11/19 02:13:43;;;;;;;9.60;4.37;;;;;;;;;;5016325;28;20068;-76
2022/11/19 02:16:21;;;;;;;9.25;4.93;;;;;;;;;;4998786;28;20266;-77
2022/11/19 02:18:55;;;;;;;11.38;4.90;;;;;;;;;;5016665;28;20084;-77
2022/11/19 02:21:24;;;;;;;7.32;4.13;;;;;;;;;;5016797;28;20356;-76
2022/11/19 02:24:27;;;;;;;8.75;4.43;;;;;;;;;;4998447;28;20205;-77
2022/11/19 02:27:19;;;;;;;9.20;4.38;;;;;;;;;;5016117;28;20029;-77
2022/11/19 02:29:59;;;;;;;8.25;4.88;;;;;;;;;;5011948;28;20056;-76
2022/11/19 02:32:31;;;;;;;8.60;4.57;;;;;;;;;;5015892;28;20084;-77
2022/11/19 02:35:12;;;;;;;10.02;4.57;;;;;;;;;;5016036;28;20435;-77
2022/11/19 02:37:48;;;;;;;9.77;4.68;;;;;;;;;;5015786;28;20495;-76
2022/11/19 02:40:22;;;;;;;9.35;4.80;;;;;;;;;;5015782;28;20436;-76
2022/11/19 02:42:53;;;;;;;9.52;4.90;;;;;;;;;;4998146;28;20080;-76
2022/11/19 02:45:25;;;;;;;9.77;4.28;;;;;;;;;;5015721;28;20033;-76
2022/11/19 02:47:54;;;;;;;9.93;4.95;;;;;;;;;;5016014;28;20036;-77
2022/11/19 02:50:24;;;;;;;8.80;4.47;;;;;;;;;;4998456;28;20387;-76
2022/11/19 02:52:50;;;;;;;8.63;4.50;;;;;;;;;;5015630;28;20542;-77
2022/11/19 02:55:19;;;;;;;8.85;4.68;;;;;;;;;;5015511;28;20065;-76
2022/11/19 02:58:02;;;;;;;8.55;4.55;;;;;;;;;;5015513;28;20391;-76
2022/11/19 03:06:12;;;;;;;7.60;4.10;;;;;;;;;;5015687;28;20028;-76
2022/11/19 03:08:37;;;;;;;8.23;4.55;;;;;;;;;;4997967;28;20494;-77
2022/11/19 03:11:19;;;;;;;8.90;4.50;;;;;;;;;;5015545;28;20030;-77
2022/11/19 03:16:52;;;;;;;12.38;5.38;;;;;;;;;;5015186;28;20495;-77
2022/11/19 03:19:36;;;;;;;17.35;5.70;;;;;;;;;;4997620;28;20080;-76
2022/11/19 03:22:07;;;;;;;12.40;5.25;;;;;;;;;;5015106;28;20029;-77
2022/11/19 03:24:38;;;;;;;12.18;5.22;;;;;;;;;;5015058;28;20073;-76
2022/11/19 03:27:26;;;;;;;10.75;5.47;;;;;;;;;;4997514;28;20022;-77
2022/11/19 03:29:55;;;;;;;10.07;4.70;;;;;;;;;;5015484;28;20028;-77
2022/11/19 03:32:26;;;;;;;10.20;5.18;;;;;;;;;;4997146;28;20026;-77
2022/11/19 03:34:58;;;;;;;10.75;4.47;;;;;;;;;;4997303;28;20129;-76
2022/11/19 03:37:25;;;;;;;9.77;4.80;;;;;;;;;;5014872;28;20029;-77
2022/11/19 03:39:52;;;;;;;9.82;4.55;;;;;;;;;;4997124;28;20041;-77
2022/11/19 03:42:19;;;;;;;8.68;4.28;;;;;;;;;;5014886;28;20034;-76
2022/11/19 03:44:49;;;;;;;14.10;4.93;;;;;;;;;;5014683;28;20022;-76
2022/11/19 03:47:18;;;;;;;10.05;4.32;;;;;;;;;;5014573;28;20025;-76
2022/11/19 03:49:46;;;;;;;9.65;4.30;;;;;;;;;;5014818;28;20029;-76
2022/11/19 03:52:18;;;;;;;9.32;4.63;;;;;;;;;;5014682;28;20022;-76
2022/11/19 03:54:43;;;;;;;8.20;4.25;;;;;;;;;;5014769;28;20507;-76
2022/11/19 03:57:12;;;;;;;9.48;4.68;;;;;;;;;;5014825;28;20041;-76
2022/11/19 03:59:38;;;;;;;9.27;4.47;;;;;;;;;;4997118;28;20445;-75
2022/11/19 04:02:06;;;;;;;8.93;5.10;;;;;;;;;;4996566;28;20109;-76
2022/11/19 04:04:36;;;;;;;12.07;4.93;;;;;;;;;;5014221;28;20033;-75
2022/11/19 04:07:06;;;;;;;8.82;5.00;;;;;;;;;;5014383;28;20022;-76
2022/11/19 04:09:32;;;;;;;10.52;5.18;;;;;;;;;;5014489;28;20049;-75
2022/11/19 04:11:57;;;;;;;12.23;5.22;;;;;;;;;;4996743;28;20095;-76
2022/11/19 04:14:22;;;;;;;11.07;4.85;;;;;;;;;;5014099;28;20018;-76
2022/11/19 04:16:48;;;;;;;8.48;4.55;;;;;;;;;;5014193;28;20034;-75
2022/11/19 04:19:13;;;;;;;9.13;4.70;;;;;;;;;;5014162;28;20029;-76
2022/11/19 04:21:38;;;;;;;8.75;4.30;;;;;;;;;;5013937;28;20559;-76
2022/11/19 04:24:04;;;;;;;7.60;4.30;;;;;;;;;;5013977;28;20113;-76
2022/11/19 04:26:29;;;;;;;8.48;4.68;;;;;;;;;;5014518;28;20096;-77
2022/11/19 04:28:54;;;;;;;8.65;4.63;;;;;;;;;;4996248;28;20565;-76
2022/11/19 04:31:20;;;;;;;11.07;5.32;;;;;;;;;;5013742;28;20022;-76
2022/11/19 04:33:45;;;;;;;9.77;4.93;;;;;;;;;;5013564;28;20060;-76
2022/11/19 04:36:10;;;;;;;7.28;4.22;;;;;;;;;;5014153;28;20065;-76
2022/11/19 04:38:35;;;;;;;12.15;5.43;;;;;;;;;;5013568;28;20041;-77
2022/11/19 04:41:01;;;;;;;9.32;4.57;;;;;;;;;;5013745;28;20466;-75
2022/11/19 04:43:26;;;;;;;9.23;4.57;;;;;;;;;;5013711;28;20033;-76
2022/11/19 04:45:51;;;;;;;9.57;4.53;;;;;;;;;;5013769;28;20025;-76
2022/11/19 04:48:17;;;;;;;10.38;4.78;;;;;;;;;;5013680;28;20029;-76
2022/11/19 04:50:42;;;;;;;10.60;4.53;;;;;;;;;;5013621;28;20067;-76
2022/11/19 04:53:07;;;;;;;10.20;4.60;;;;;;;;;;5013698;28;20054;-76
2022/11/19 04:55:32;;;;;;;8.70;4.47;;;;;;;;;;4996211;28;20106;-76
2022/11/19 04:57:58;;;;;;;11.13;5.32;;;;;;;;;;5013914;28;20084;-75
2022/11/19 05:00:23;;;;;;;9.05;5.13;;;;;;;;;;5013856;28;20076;-76
2022/11/19 05:02:48;;;;;;;11.98;4.63;;;;;;;;;;5013911;28;20038;-76
2022/11/19 05:05:14;;;;;;;12.63;5.57;;;;;;;;;;5013890;28;20505;-77
2022/11/19 05:07:39;;;;;;;13.07;5.43;;;;;;;;;;5013635;28;20091;-76
2022/11/19 05:10:04;;;;;;;12.55;5.72;;;;;;;;;;4995759;28;20018;-76
2022/11/19 05:12:30;;;;;;;9.60;4.75;;;;;;;;;;5013308;28;20033;-76
2022/11/19 05:14:55;;;;;;;12.23;5.22;;;;;;;;;;5013352;28;20479;-76
2022/11/19 05:17:20;;;;;;;8.82;4.45;;;;;;;;;;5013712;28;20022;-75
2022/11/19 05:19:46;;;;;;;10.75;5.05;;;;;;;;;;4995973;28;20022;-76
2022/11/19 05:22:11;;;;;;;8.68;4.50;;;;;;;;;;5013676;28;20030;-76
2022/11/19 05:24:36;;;;;;;8.18;4.28;;;;;;;;;;5013457;28;20024;-76
2022/11/19 05:27:02;;;;;;;10.30;5.25;;;;;;;;;;5013313;28;20024;-76
2022/11/19 05:29:27;;;;;;;9.05;4.35;;;;;;;;;;5013195;28;20391;-75
2022/11/19 05:31:53;;;;;;;10.75;5.07;;;;;;;;;;5013238;28;20021;-76
2022/11/19 05:34:18;;;;;;;13.00;4.75;;;;;;;;;;5013199;28;20022;-76
2022/11/19 05:36:43;;;;;;;10.05;5.18;;;;;;;;;;4996404;28;20030;-78
2022/11/19 05:39:08;;;;;;;9.45;4.45;;;;;;;;;;5003369;28;20026;-75
2022/11/19 05:41:34;;;;;;;9.07;4.22;;;;;;;;;;5017580;28;20033;-76
2022/11/19 05:43:59;;;;;;;14.10;4.97;;;;;;;;;;5034926;28;20030;-76
2022/11/19 05:46:24;;;;;;;8.95;5.03;;;;;;;;;;5038098;28;20032;-74
2022/11/19 05:48:50;;;;;;;12.48;5.57;;;;;;;;;;5039182;28;20045;-75
2022/11/19 05:51:15;;;;;;;11.93;5.22;;;;;;;;;;5022098;28;20018;-75
2022/11/19 05:53:42;;;;;;;9.32;5.05;;;;;;;;;;5039234;28;20065;-75
2022/11/19 05:56:08;;;;;;;10.70;5.05;;;;;;;;;;5039465;28;20025;-77
2022/11/19 05:58:34;;;;;;;13.30;5.15;;;;;;;;;;5039278;28;20050;-76
2022/11/19 06:00:59;;;;;;;10.63;4.97;;;;;;;;;;5038889;28;20034;-76
2022/11/19 06:03:24;;;;;;;11.77;6.07;;;;;;;;;;5038568;28;20050;-76
2022/11/19 06:05:50;;;;;;;8.88;4.68;;;;;;;;;;5038791;28;20033;-76
2022/11/19 06:08:16;;;;;;;10.90;4.75;;;;;;;;;;5038417;28;20056;-75
2022/11/19 06:10:41;;;;;;;9.93;4.40;;;;;;;;;;5037868;28;20022;-75
2022/11/19 06:13:07;;;;;;;16.63;5.32;;;;;;;;;;5037503;28;20025;-75
2022/11/19 06:15:32;;;;;;;6.97;4.07;;;;;;;;;;5038573;28;20020;-76
2022/11/19 06:17:57;;;;;;;10.27;4.95;;;;;;;;;;5038004;28;20045;-75
2022/11/19 06:20:22;;;;;;;9.80;5.00;;;;;;;;;;5037859;28;20033;-75
2022/11/19 06:22:48;;;;;;;8.90;4.43;;;;;;;;;;5037922;28;20041;-76
2022/11/19 06:25:13;;;;;;;8.90;4.47;;;;;;;;;;5020666;28;20026;-75
2022/11/19 06:27:38;;;;;;;9.70;4.70;;;;;;;;;;5039201;28;20025;-76
2022/11/19 06:30:05;;;;;;;10.95;5.35;;;;;;;;;;5040519;28;20030;-75
2022/11/19 06:32:31;;;;;;;10.50;5.30;;;;;;;;;;5039816;28;20034;-75
2022/11/19 06:34:56;;;;;;;12.38;5.82;;;;;;;;;;5020281;28;20033;-75
2022/11/19 06:37:22;;;;;;;13.55;5.93;;;;;;;;;;5027675;28;20075;-75
2022/11/19 06:39:47;;;;;;;11.30;5.30;;;;;;;;;;5018090;28;20040;-75
2022/11/19 06:44:56;;;;;;;;;;;;;;;;;;5017208;28;20477;-75
2022/11/19 06:47:21;;;;;;;9.37;4.87;;;;;;;;;;4998705;28;19909;-74
2022/11/19 06:49:47;;;;;;;12.00;5.88;;;;;;;;;;5016277;28;20273;-75
2022/11/19 06:52:12;;;;;;;11.68;6.05;;;;;;;;;;5016609;28;20391;-75
2022/11/19 06:54:37;;;;;;;14.18;7.10;;;;;;;;;;5016259;28;20034;-76
2022/11/19 06:57:02;;;;;;;14.38;6.45;;;;;;;;;;5016321;28;20057;-75
2022/11/19 06:59:30;;;;;;;12.43;6.03;;;;;;;;;;4998571;28;20029;-75
2022/11/19 07:01:55;;;;;;;12.40;6.03;;;;;;;;;;5016120;28;20036;-76
2022/11/19 07:04:21;;;;;;;12.27;5.97;;;;;;;;;;5016069;28;20018;-75
2022/11/19 07:06:46;;;;;;;12.18;6.55;;;;;;;;;;5015922;28;20030;-76
2022/11/19 07:09:12;;;;;;;15.73;6.45;;;;;;;;;;5016436;28;20109;-75
2022/11/19 07:11:37;;;;;;;13.88;6.70;;;;;;;;;;5015400;28;20072;-75
2022/11/19 07:14:02;;;;;;;15.32;6.82;;;;;;;;;;5015496;28;20048;-76
2022/11/19 07:16:31;;;;;;;15.27;6.63;;;;;;;;;;5015436;28;20499;-76
2022/11/19 07:18:58;;;;;;;12.43;6.07;;;;;;;;;;5015559;28;20022;-76
2022/11/19 07:21:24;;;;;;;14.40;6.40;;;;;;;;;;4997576;28;20060;-75
2022/11/19 07:23:50;;;;;;;14.73;7.78;;;;;;;;;;5016266;28;20026;-76
2022/11/19 07:26:15;;;;;;;15.75;7.47;;;;;;;;;;5015266;28;20602;-76
2022/11/19 07:28:41;;;;;;;14.93;6.72;;;;;;;;;;5014918;28;20026;-76
2022/11/19 07:31:06;;;;;;;13.73;6.20;;;;;;;;;;5014883;28;20521;-76
2022/11/19 07:33:32;;;;;;;15.18;7.00;;;;;;;;;;5014674;28;20502;-76
2022/11/19 07:35:57;;;;;;;11.15;5.85;;;;;;;;;;4997240;28;20084;-76
2022/11/19 07:38:23;;;;;;;23.98;6.47;;;;;;;;;;5015610;28;20037;-75
2022/11/19 07:40:55;;;;;;;16.13;6.82;;;;;;;;;;5014854;28;20038;-75
2022/11/19 07:43:20;;;;;;;16.20;7.78;;;;;;;;;;5014804;28;20109;-75
2022/11/19 07:45:46;;;;;;;21.23;9.18;;;;;;;;;;5014563;28;20057;-75
2022/11/19 07:48:11;;;;;;;13.98;7.78;;;;;;;;;;5014459;28;20030;-75
2022/11/19 07:50:37;;;;;;;11.48;6.15;;;;;;;;;;4997391;28;20120;-76
2022/11/19 07:53:03;;;;;;;12.95;6.05;;;;;;;;;;4996534;28;20110;-76
2022/11/19 07:55:28;;;;;;;12.25;5.35;;;;;;;;;;5014380;28;20064;-75
2022/11/19 07:57:53;;;;;;;11.40;5.10;;;;;;;;;;4996800;28;20025;-76
2022/11/19 08:00:19;;;;;;;10.95;5.28;;;;;;;;;;5014439;28;20532;-76
2022/11/19 08:02:44;;;;;;;10.95;5.55;;;;;;;;;;4996446;28;20065;-76
2022/11/19 08:05:11;;;;;;;12.10;5.38;;;;;;;;;;5014409;28;20409;-76
2022/11/19 08:07:36;;;;;;;13.05;6.15;;;;;;;;;;5014078;28;20113;-77
2022/11/19 08:10:02;;;;;;;10.68;5.75;;;;;;;;;;4995952;28;20028;-76
2022/11/19 08:12:28;;;;;;;12.50;6.25;;;;;;;;;;5014048;28;20022;-76
2022/11/19 08:14:54;;;;;;;10.95;5.05;;;;;;;;;;5014239;28;20053;-76
2022/11/19 08:20:03;;;;;;;14.05;6.13;;;;;;;;;;5013871;28;20088;-75
2022/11/19 08:22:28;;;;;;;9.73;5.28;;;;;;;;;;5013582;28;20446;-75
2022/11/19 08:24:54;;;;;;;9.50;5.15;;;;;;;;;;5014383;28;20426;-75
2022/11/19 08:27:19;;;;;;;9.52;5.20;;;;;;;;;;5013731;28;20080;-75
2022/11/19 08:29:44;;;;;;;10.88;5.50;;;;;;;;;;5013842;28;20033;-75
2022/11/19 08:32:09;;;;;;;15.98;6.68;;;;;;;;;;5013667;28;20029;-75
2022/11/19 08:34:35;;;;;;;12.13;5.57;;;;;;;;;;4996056;28;20461;-75
2022/11/19 08:37:00;;;;;;;12.18;5.97;;;;;;;;;;5013494;28;20037;-77
2022/11/19 08:39:25;;;;;;;10.52;5.35;;;;;;;;;;5013837;28;20030;-76
2022/11/19 08:44:35;;;;;;;8.15;5.07;;;;;;;;;;5013537;28;20403;-75
2022/11/19 08:47:00;;;;;;;14.70;5.82;;;;;;;;;;5013432;28;20034;-76
2022/11/19 08:49:25;;;;;;;9.98;5.75;;;;;;;;;;5013839;28;20081;-75
2022/11/19 08:51:51;;;;;;;13.45;5.35;;;;;;;;;;4995674;28;20037;-77
2022/11/19 08:54:16;;;;;;;8.60;4.25;;;;;;;;;;4995664;28;20120;-75
2022/11/19 08:56:41;;;;;;;13.07;6.38;;;;;;;;;;5013315;28;20038;-75
2022/11/19 08:59:07;;;;;;;8.40;4.25;;;;;;;;;;4995841;28;20072;-75
2022/11/19 09:01:32;;;;;;;12.55;4.90;;;;;;;;;;4996528;28;20032;-75
2022/11/19 09:03:57;;;;;;;15.32;6.28;;;;;;;;;;5013347;28;20049;-75
2022/11/19 09:06:23;;;;;;;15.05;6.05;;;;;;;;;;5013307;28;20100;-75
2022/11/19 09:08:48;;;;;;;11.05;5.80;;;;;;;;;;5013466;28;20372;-76
2022/11/19 09:11:16;;;;;;;13.50;6.25;;;;;;;;;;5013360;28;20097;-73
2022/11/19 09:13:41;;;;;;;10.68;5.85;;;;;;;;;;5013357;28;20068;-75
2022/11/19 09:16:08;;;;;;;12.75;6.45;;;;;;;;;;5013241;28;20033;-75
2022/11/19 09:18:37;;;;;;;12.43;5.22;;;;;;;;;;4995852;28;20036;-75
2022/11/19 09:21:03;;;;;;;14.50;7.22;;;;;;;;;;5016549;28;20034;-75
2022/11/19 09:23:28;;;;;;;17.52;7.40;;;;;;;;;;5017317;28;20080;-74
2022/11/19 09:25:59;;;;;;;15.30;6.95;;;;;;;;;;5017298;28;20112;-75
2022/11/19 09:28:25;;;;;;;11.95;6.78;;;;;;;;;;4999557;28;20026;-74
2022/11/19 09:30:59;;;;;;;14.05;6.40;;;;;;;;;;5019492;28;20033;-75
2022/11/19 09:33:25;;;;;;;;;;;;;;;;;;5018068;28;20030;-76
2022/11/19 09:35:51;;;;;;;12.43;5.72;;;;;;;;;;5017291;28;19914;-75
2022/11/19 09:38:16;;;;;;;12.45;5.10;;;;;;;;;;5019934;28;20033;-77
2022/11/19 09:40:46;;;;;;;17.17;6.57;;;;;;;;;;5020725;28;20037;-79
2022/11/19 09:43:39;;;;;;;12.52;6.10;;;;;;;;;;5004623;28;20120;-77
2022/11/19 09:46:36;;;;;;;15.52;7.15;;;;;;;;;;5005442;28;20120;-77
2022/11/19 09:49:09;;;;;;;14.52;6.68;;;;;;;;;;5024750;28;20021;-78
2022/11/19 09:51:38;;;;;;;12.32;5.82;;;;;;;;;;5010141;28;20173;-79
2022/11/19 09:54:13;;;;;;;12.15;6.47;;;;;;;;;;5024443;28;20100;-78
2022/11/19 09:56:41;;;;;;;19.63;6.57;;;;;;;;;;5021135;28;20072;-78
2022/11/19 09:59:27;;;;;;;15.30;5.63;;;;;;;;;;5019527;28;20025;-78
2022/11/19 10:01:54;;;;;;;12.85;6.03;;;;;;;;;;5023664;28;20029;-78
2022/11/19 10:04:23;;;;;;;13.60;6.63;;;;;;;;;;5021724;28;20026;-77
2022/11/19 10:07:12;;;;;;;14.93;7.28;;;;;;;;;;5024253;28;20022;-77
2022/11/19 10:10:15;;;;;;;18.00;7.82;;;;;;;;;;5006486;28;20030;-77
2022/11/19 10:13:10;;;;;;;13.90;6.75;;;;;;;;;;5022666;28;20030;-77
2022/11/19 10:16:01;;;;;;;15.23;6.93;;;;;;;;;;5002545;28;20076;-77
2022/11/19 10:18:45;;;;;;;13.27;6.60;;;;;;;;;;4991614;28;20037;-77
2022/11/19 10:21:26;;;;;;;15.52;7.30;;;;;;;;;;5021200;28;20034;-76
2022/11/19 10:24:07;;;;;;;13.98;6.28;;;;;;;;;;5020550;28;20458;-77
2022/11/19 10:26:34;;;;;;;14.15;6.88;;;;;;;;;;5020636;28;20021;-77
2022/11/19 10:29:02;;;;;;;15.38;6.68;;;;;;;;;;5019639;28;20032;-77
2022/11/19 10:31:36;;;;;;;17.38;6.78;;;;;;;;;;5019407;28;20376;-77
2022/11/19 10:34:15;;;;;;;16.27;7.55;;;;;;;;;;5019836;28;20025;-77
2022/11/19 10:36:47;;;;;;;17.98;6.68;;;;;;;;;;5019423;28;20108;-78
2022/11/19 10:39:31;;;;;;;14.15;6.90;;;;;;;;;;5019376;28;20037;-78
2022/11/19 10:42:05;;;;;;;12.60;6.43;;;;;;;;;;5001840;28;20038;-77
2022/11/19 10:44:39;;;;;;;17.60;7.03;;;;;;;;;;5019477;28;20034;-76
2022/11/19 10:47:26;;;;;;;14.60;6.68;;;;;;;;;;5017296;28;20080;-77
2022/11/19 10:49:53;;;;;;;16.00;6.60;;;;;;;;;;4999138;28;20048;-77
2022/11/19 10:52:24;;;;;;;12.07;6.53;;;;;;;;;;5018177;28;20541;-80
2022/11/19 10:54:54;;;;;;;16.13;7.30;;;;;;;;;;5017018;28;20033;-80
2022/11/19 10:57:20;;;;;;;14.32;6.78;;;;;;;;;;4998366;28;20030;-79
2022/11/19 10:59:48;;;;;;;14.32;6.78;;;;;;;;;;4998815;28;20029;-75
2022/11/19 11:02:39;;;;;;;12.10;6.35;;;;;;;;;;5015198;28;20107;-75
2022/11/19 11:05:07;;;;;;;14.98;6.95;;;;;;;;;;5013726;28;20030;-74
2022/11/19 11:08:10;;;;;;;12.65;6.60;;;;;;;;;;5015204;28;20041;-75
2022/11/19 11:10:41;;;;;;;13.45;5.68;;;;;;;;;;5004677;28;20431;-76
2022/11/19 11:16:06;;;;;;;11.48;5.93;;;;;;;;;;5015210;28;20041;-75
2022/11/19 11:18:31;;;;;;;12.63;6.20;;;;;;;;;;5015415;28;20455;-75
2022/11/19 11:20:58;;;;;;;11.13;6.32;;;;;;;;;;5014963;28;20034;-75
2022/11/19 11:23:26;;;;;;;10.48;5.53;;;;;;;;;;4997318;28;20025;-75
2022/11/19 11:26:07;;;;;;;13.30;6.07;;;;;;;;;;5014888;28;20080;-75
2022/11/19 11:28:33;;;;;;;9.02;5.15;;;;;;;;;;5015004;28;20522;-75
2022/11/19 11:31:05;;;;;;;7.63;4.28;;;;;;;;;;5014865;28;20022;-74
2022/11/19 11:33:41;;;;;;;12.45;5.05;;;;;;;;;;5015143;28;20018;-75
2022/11/19 11:36:15;;;;;;;8.27;4.57;;;;;;;;;;5014738;28;20100;-75
2022/11/19 11:38:48;;;;;;;8.18;4.43;;;;;;;;;;5015090;28;20058;-75
2022/11/19 11:41:23;;;;;;;6.80;3.97;;;;;;;;;;5014774;28;20026;-74
2022/11/19 11:44:01;;;;;;;7.72;3.53;;;;;;;;;;4996949;28;20022;-76
2022/11/19 11:46:50;;;;;;;7.38;2.85;;;;;;;;;;4997093;28;20073;-76
2022/11/19 11:49:40;;;;;;;6.63;3.83;;;;;;;;;;5014977;28;20025;-75
2022/11/19 11:52:08;;;;;;;6.93;3.83;;;;;;;;;;5014389;28;20044;-76
2022/11/19 11:54:37;;;;;;;5.32;3.10;;;;;;;;;;5014762;28;20149;-76
2022/11/19 11:57:17;;;;;;;5.60;3.47;;;;;;;;;;5014638;28;20112;-76
2022/11/19 11:59:45;;;;;;;4.60;2.40;;;;;;;;;;5014559;28;20131;-76
2022/11/19 12:02:29;;;;;;;5.88;3.10;;;;;;;;;;5014351;28;20037;-75
2022/11/19 12:04:55;;;;;;;6.82;3.90;;;;;;;;;;4996784;28;20022;-76
2022/11/19 12:07:42;;;;;;;6.95;3.60;;;;;;;;;;5014270;28;20061;-76
2022/11/19 12:10:26;;;;;;;6.55;4.05;;;;;;;;;;4996857;28;20029;-75
2022/11/19 12:13:04;;;;;;;8.23;4.03;;;;;;;;;;4996717;28;20514;-76
2022/11/19 12:15:41;;;;;;;9.93;4.28;;;;;;;;;;5014309;28;20124;-74
2022/11/19 12:18:29;;;;;;;7.00;3.75;;;;;;;;;;5014037;28;20033;-75
2022/11/19 12:21:08;;;;;;;7.63;3.90;;;;;;;;;;5014274;28;20029;-76
2022/11/19 12:23:57;;;;;;;5.53;2.78;;;;;;;;;;5014062;28;20026;-75
2022/11/19 12:26:40;;;;;;;4.85;3.10;;;;;;;;;;5014054;28;20133;-75
2022/11/19 12:29:22;;;;;;;3.13;1.95;;;;;;;;;;5014202;28;20029;-74
2022/11/19 12:32:12;;;;;;;3.58;2.10;;;;;;;;;;5013980;28;20483;-75
2022/11/19 12:35:16;;;;;;;5.68;2.85;;;;;;;;;;5013889;28;20038;-75
2022/11/19 12:38:00;;;;;;;;;;;;;;;;;;5014120;28;20390;-76
2022/11/19 12:41:04;;;;;;;3.63;1.88;;;;;;;;;;5013936;28;19913;-75
2022/11/19 12:43:45;;;;;;;5.63;2.80;;;;;;;;;;5013835;28;20108;-75
2022/11/19 12:46:53;;;;;;;4.72;2.97;;;;;;;;;;5013570;28;20038;-75
2022/11/19 12:49:21;;;;;;;4.93;3.03;;;;;;;;;;4995893;28;20079;-75
2022/11/19 12:52:14;;;;;;;3.83;2.60;;;;;;;;;;5013419;28;20361;-76
2022/11/19 12:54:47;;;;;;;8.15;3.20;;;;;;;;;;4995851;28;20046;-76
2022/11/19 12:57:51;;;;;;;6.05;3.30;;;;;;;;;;4995858;28;20025;-75
2022/11/19 13:00:19;;;;;;;4.38;2.67;;;;;;;;;;5013668;28;20030;-75
2022/11/19 13:03:03;;;;;;;6.13;3.28;;;;;;;;;;5013551;28;20030;-74
2022/11/19 13:05:38;;;;;;;4.97;2.85;;;;;;;;;;4995746;28;20029;-75
2022/11/19 13:08:30;;;;;;;5.68;3.05;;;;;;;;;;5013247;28;20509;-75
2022/11/19 13:11:18;;;;;;;5.40;2.85;;;;;;;;;;5000096;28;20407;-75
2022/11/19 13:13:57;;;;;;;4.93;2.50;;;;;;;;;;5013294;28;20022;-75
2022/11/19 13:16:24;;;;;;;6.38;3.00;;;;;;;;;;5013356;28;20489;-75
2022/11/19 13:18:52;;;;;;;5.90;2.95;;;;;;;;;;4995565;28;20117;-75
2022/11/19 13:21:38;;;;;;;4.60;2.67;;;;;;;;;;4995400;28;20026;-75
2022/11/19 13:24:22;;;;;;;6.50;2.80;;;;;;;;;;4995997;28;20472;-74
2022/11/19 13:26:48;;;;;;;5.40;2.88;;;;;;;;;;5013170;28;20034;-75
2022/11/19 13:29:36;;;;;;;5.22;2.78;;;;;;;;;;5013063;28;20022;-76
2022/11/19 13:32:10;;;;;;;4.85;2.80;;;;;;;;;;5013306;28;20037;-76
2022/11/19 13:34:53;;;;;;;;;;;;;;;;;;5013894;28;20021;-75
2022/11/19 13:37:33;;;;;;;4.78;2.63;;;;;;;;;;5012928;28;20298;-76
2022/11/19 13:40:15;;;;;;;4.55;2.90;;;;;;;;;;5013096;28;20121;-74
2022/11/19 13:45:25;;;;;;;5.38;2.72;;;;;;;;;;5013532;28;20033;-75
2022/11/19 13:48:03;;;;;;;4.13;2.85;;;;;;;;;;5012939;28;20403;-76
2022/11/19 13:50:42;;;;;;;4.95;2.63;;;;;;;;;;5013022;28;20053;-75
2022/11/19 13:53:30;;;;;;;6.15;2.92;;;;;;;;;;5013208;28;20028;-76
2022/11/19 13:55:56;;;;;;;5.88;2.90;;;;;;;;;;5012918;28;20080;-76
2022/11/19 13:58:37;;;;;;;4.80;3.10;;;;;;;;;;4995335;28;20026;-76
2022/11/19 14:01:17;;;;;;;6.53;3.08;;;;;;;;;;5012867;28;20022;-76
2022/11/19 14:04:07;;;;;;;4.82;2.83;;;;;;;;;;5012989;28;20517;-75
2022/11/19 14:07:11;;;;;;;4.43;2.70;;;;;;;;;;4995805;28;20033;-76
2022/11/19 14:09:52;;;;;;;5.27;2.60;;;;;;;;;;5016399;28;20092;-76
2022/11/19 14:12:48;;;;;;;5.25;2.95;;;;;;;;;;4998869;28;20021;-75
2022/11/19 14:27:25;;;;;;;6.03;3.60;;;;;;;;;;5016424;28;20149;-78
2022/11/19 14:30:14;;;;;;;7.53;3.00;;;;;;;;;;5016209;28;20479;-76
2022/11/19 14:32:50;;;;;;;6.60;3.10;;;;;;;;;;5016525;28;20573;-76
2022/11/19 14:35:24;;;;;;;8.70;4.07;;;;;;;;;;5016486;28;20336;-77
2022/11/19 14:37:53;;;;;;;6.90;4.20;;;;;;;;;;5015873;28;20030;-77
2022/11/19 14:40:27;;;;;;;6.07;3.83;;;;;;;;;;5016191;28;20018;-76
2022/11/19 14:46:04;;;;;;;7.07;3.78;;;;;;;;;;5016103;28;20386;-76
2022/11/19 14:48:30;;;;;;;8.00;4.00;;;;;;;;;;5015946;28;20037;-76
2022/11/19 14:51:04;;;;;;;6.32;3.20;;;;;;;;;;5015654;28;20399;-76
2022/11/19 14:53:30;;;;;;;5.82;3.20;;;;;;;;;;5015567;28;20025;-77
2022/11/19 14:55:56;;;;;;;5.20;3.25;;;;;;;;;;4998113;28;20029;-76
2022/11/19 14:58:23;;;;;;;6.68;3.35;;;;;;;;;;5015774;28;20041;-76
2022/11/19 15:00:49;;;;;;;6.70;3.25;;;;;;;;;;5015577;28;20049;-76
2022/11/19 15:03:26;;;;;;;6.72;3.38;;;;;;;;;;4997855;28;20483;-77
2022/11/19 15:05:51;;;;;;;8.18;3.40;;;;;;;;;;5015804;28;20034;-75
2022/11/19 15:08:17;;;;;;;6.55;3.92;;;;;;;;;;5015539;28;20029;-75
2022/11/19 15:11:00;;;;;;;7.45;3.22;;;;;;;;;;5015293;28;20026;-75
2022/11/19 15:13:27;;;;;;;7.13;3.53;;;;;;;;;;5019057;28;20025;-75
2022/11/19 15:15:56;;;;;;;6.40;3.70;;;;;;;;;;5015943;28;20026;-76
2022/11/19 15:18:39;;;;;;;5.47;3.08;;;;;;;;;;5015034;28;20026;-76
2022/11/19 15:21:39;;;;;;;8.20;3.80;;;;;;;;;;5015247;28;20057;-75
2022/11/19 15:24:19;;;;;;;10.68;4.32;;;;;;;;;;4998433;28;20029;-76
2022/11/19 15:26:47;;;;;;;7.32;3.72;;;;;;;;;;5015193;28;20022;-76
2022/11/19 15:29:50;;;;;;;7.07;3.75;;;;;;;;;;5015430;28;20034;-76
2022/11/19 15:32:21;;;;;;;8.07;4.00;;;;;;;;;;5015174;28;20032;-76
2022/11/19 15:35:02;;;;;;;9.13;4.07;;;;;;;;;;5014933;28;20026;-76
2022/11/19 15:37:52;;;;;;;9.57;4.40;;;;;;;;;;5014923;28;20403;-76
2022/11/19 15:40:23;;;;;;;9.30;4.40;;;;;;;;;;5015148;28;20066;-74